Thunder radar more information blitzortung!


Löydät sääaseman tiedot myös:

European Weather Network

Finland Weather Exchange

Weather Underground

AWEKAS



Weather Underground säähistoriasivu

Päivittäin yhteenveto Syyskuu 13, 2017 Yksiköt:  Englantilaiset    Metriset   Molemmat
« Edellinen Päivä
Seuraava Päivä »
Päivittäin Viikoittain Kuukausittain Vuosittain Mukautettu
  Korkea: Matala: Keskiarvo:
Lämpötila: TemperatureC °F 7.2 °F 12 °F
Kastepiste: DewpointC °F 6.6 °F 11.1 °F
Kosteus: Humidity % 79 % 93 %
Tuulen nopeus: WindSpeedKMH mph 0.0 mph 0.5 mph
Tuulenpuuska: WindSpeedGustKMH mph - -
Tuuli:- - SSW
Ilmanpaine: PressurehPa in 990.7 in -
Sade: 0.3 in    
Historical Graphs
 
 
Taulukkotiedot Syyskuu 13, 2017
Aika Lämpötila Kastepiste Ilmanpaine Tuuli Tuulen nopeus Tuulenpuuska Kosteus Sademäärä (tunneittain)
TemperatureC °F DewpointC °F PressurehPa in Calm     Humidity % HourlyPrecipMM in
00:00 9.6 °F 8.9 °F 996.8 in Calm     96 % 0.0 in
00:15 9.6 °F 8.9 °F 996.8 in Calm     96 % 0.0 in
00:30 9.4 °F 9.0 °F 996.8 in Calm     97 % 0.0 in
00:45 9.6 °F 9.1 °F 996.8 in Calm     97 % 0.0 in
01:00 9.7 °F 9.3 °F 996.8 in Calm   3.2 mph 97 % 0.0 in
01:15 10.0 °F 9.5 °F 996.8 in Calm   3.2 mph 97 % 0.0 in
01:45 10.1 °F 9.6 °F 996.8 in Calm   3.2 mph 97 % 0.0 in
02:00 10.2 °F 9.7 °F 996.8 in Calm   3.2 mph 97 % 0.0 in
02:15 10.2 °F 9.7 °F 996.8 in Calm   3.2 mph 97 % 0.0 in
02:30 10.3 °F 9.9 °F 996.8 in Calm     97 % 0.0 in
02:45 10.6 °F 10.1 °F 996.8 in Calm   3.2 mph 97 % 0.0 in
03:00 10.7 °F 10.4 °F 996.8 in Calm     98 % 0.0 in
03:15 10.8 °F 10.5 °F 996.5 in Calm   3.2 mph 98 % 0.0 in
03:30 10.8 °F 10.5 °F 996.2 in Calm     98 % 0.0 in
03:45 10.9 °F 10.6 °F 996.2 in Calm     98 % 0.0 in
04:00 10.9 °F 10.6 °F 996.2 in Calm     98 % 0.0 in
04:15 10.9 °F 10.6 °F 996.2 in Calm     98 % 0.0 in
04:30 11.1 °F 10.8 °F 996.2 in Calm   1.6 mph 98 % 0.0 in
04:45 11.1 °F 10.8 °F 996.2 in Calm     98 % 0.0 in
05:00 11.3 °F 11.0 °F 995.8 in Calm   1.6 mph 98 % 0.0 in
05:15 11.4 °F 11.1 °F 995.8 in Calm     98 % 0.0 in
05:30 11.5 °F 11.2 °F 995.8 in Calm   6.4 mph 98 % 0.0 in
05:45 11.8 °F 11.5 °F 995.8 in Calm     98 % 0.0 in
06:00 11.8 °F 11.5 °F 995.8 in Calm     98 % 0.0 in
06:15 11.9 °F 11.6 °F 995.5 in Calm   3.2 mph 98 % 0.0 in
06:30 11.9 °F 11.6 °F 995.5 in Calm     98 % 0.0 in
06:45 12.0 °F 11.7 °F 995.5 in Calm   4.8 mph 98 % 0.0 in
07:00 12.1 °F 11.7 °F 995.5 in Calm     98 % 0.0 in
07:15 12.0 °F 11.7 °F 995.1 in Calm     98 % 0.0 in
07:30 12.1 °F 11.7 °F 995.1 in Calm     98 % 0.0 in
07:45 12.1 °F 11.8 °F 995.1 in Calm     98 % 0.0 in
08:00 12.2 °F 11.9 °F 995.1 in South 1.6 mph 11.3 mph 98 % 0.0 in
08:15 12.3 °F 12.0 °F 994.8 in Calm   3.2 mph 98 % 0.0 in
08:30 12.4 °F 12.1 °F 994.5 in Calm   6.4 mph 98 % 0.0 in
08:45 12.4 °F 12.1 °F 994.5 in Calm   8.0 mph 98 % 0.0 in
09:00 12.5 °F 12.0 °F 994.5 in Calm   6.4 mph 97 % 0.0 in
09:15 12.5 °F 12.0 °F 994.1 in Calm   6.4 mph 97 % 0.0 in
09:30 12.6 °F 12.1 °F 994.1 in Calm   8.0 mph 97 % 0.0 in
09:45 12.6 °F 12.1 °F 994.1 in Calm   3.2 mph 97 % 0.0 in
10:00 12.6 °F 11.9 °F 994.1 in Calm   3.2 mph 96 % 0.0 in
10:15 12.6 °F 12.0 °F 994.1 in Calm   6.4 mph 96 % 0.0 in
10:30 12.7 °F 12.1 °F 994.1 in Calm   6.4 mph 96 % 0.0 in
10:45 12.9 °F 12.3 °F 994.1 in SE 1.6 mph 8.0 mph 96 % 0.0 in
11:00 13.7 °F 13.0 °F 993.8 in Calm   11.3 mph 96 % 0.0 in
11:15 14.1 °F 12.8 °F 993.8 in South 3.2 mph 12.9 mph 92 % 0.0 in
11:30 14.3 °F 12.5 °F 993.8 in South 3.2 mph 19.3 mph 89 % 0.0 in
11:45 14.5 °F 12.7 °F 993.8 in SSW 3.2 mph 9.7 mph 89 % 0.0 in
12:00 14.6 °F 12.4 °F 993.8 in South 3.2 mph 12.9 mph 87 % 0.0 in
12:15 14.6 °F 12.4 °F 993.5 in SSE 1.6 mph 8.0 mph 87 % 0.0 in
12:30 14.7 °F 12.7 °F 993.5 in South 1.6 mph 8.0 mph 88 % 0.0 in
12:45 14.9 °F 12.7 °F 993.5 in Calm   6.4 mph 87 % 0.0 in
13:00 15.1 °F 12.8 °F 993.5 in SSW 1.6 mph 8.0 mph 86 % 0.0 in
13:15 14.8 °F 13.0 °F 993.1 in Calm   6.4 mph 89 % 0.3 in
13:30 15.0 °F 13.0 °F 993.1 in Calm   3.2 mph 88 % 0.3 in
13:45 15.6 °F 12.9 °F 993.1 in South 4.8 mph 14.5 mph 84 % 0.3 in
14:00 15.8 °F 12.3 °F 993.1 in South 3.2 mph 14.5 mph 80 % 0.3 in
14:15 16.6 °F 12.9 °F 992.8 in South 3.2 mph 11.3 mph 79 % 0.0 in
14:30 16.3 °F 12.7 °F 992.8 in SSW 3.2 mph 12.9 mph 79 % 0.0 in
14:45 15.7 °F 13.4 °F 992.8 in WSW 1.6 mph 4.8 mph 86 % 0.0 in
15:00 15.6 °F 13.3 °F 992.8 in Calm   3.2 mph 86 % 0.0 in
15:15 15.5 °F 13.5 °F 992.8 in Calm     88 % 0.0 in
15:30 15.4 °F 13.6 °F 992.8 in Calm   6.4 mph 89 % 0.0 in
15:45 15.0 °F 13.5 °F 992.8 in SSW 1.6 mph 11.3 mph 91 % 0.0 in
16:00 15.4 °F 13.9 °F 992.8 in SSW 1.6 mph 8.0 mph 91 % 0.0 in
16:15 15.3 °F 13.3 °F 992.8 in SW 1.6 mph 9.7 mph 88 % 0.0 in
16:30 14.7 °F 12.5 °F 992.4 in SW 1.6 mph 9.7 mph 87 % 0.0 in
16:45 14.1 °F 12.6 °F 992.8 in SSW 3.2 mph 12.9 mph 91 % 0.0 in
17:00 13.7 °F 12.6 °F 992.4 in Calm   6.4 mph 93 % 0.0 in
17:15 13.8 °F 12.8 °F 992.4 in Calm   3.2 mph 94 % 0.0 in
17:30 14.3 °F 13.5 °F 992.1 in Calm     95 % 0.0 in
17:45 14.6 °F 13.6 °F 992.1 in Calm     94 % 0.0 in
18:00 14.3 °F 13.4 °F 992.1 in Calm   1.6 mph 94 % 0.0 in
18:15 14.3 °F 13.5 °F 992.1 in Calm   3.2 mph 95 % 0.0 in
18:30 14.2 °F 13.1 °F 992.1 in Calm   1.6 mph 93 % 0.0 in
18:45 13.7 °F 12.4 °F 992.1 in SW 1.6 mph 9.7 mph 92 % 0.0 in
19:00 13.4 °F 12.3 °F 991.8 in Calm     93 % 0.0 in
19:15 13.1 °F 11.9 °F 991.8 in Calm     93 % 0.0 in
19:30 12.8 °F 11.8 °F 991.8 in Calm     94 % 0.0 in
19:45 12.4 °F 11.5 °F 991.8 in Calm     94 % 0.0 in
20:00 11.9 °F 11.0 °F 991.8 in Calm     94 % 0.0 in
20:15 11.4 °F 10.5 °F 991.8 in Calm     94 % 0.0 in
20:30 10.8 °F 9.9 °F 991.8 in Calm     94 % 0.0 in
20:45 10.2 °F 9.3 °F 991.8 in Calm     94 % 0.0 in
21:00 9.7 °F 9.0 °F 991.8 in Calm     95 % 0.0 in
21:15 9.3 °F 8.6 °F 991.4 in Calm     95 % 0.0 in
21:30 8.9 °F 8.2 °F 991.4 in Calm     95 % 0.0 in
21:45 8.6 °F 7.9 °F 991.4 in Calm     95 % 0.0 in
22:00 8.3 °F 7.6 °F 991.1 in Calm     95 % 0.0 in
22:15 7.8 °F 7.2 °F 991.1 in Calm     96 % 0.0 in
22:30 7.7 °F 7.1 °F 991.1 in Calm     96 % 0.0 in
22:45 7.4 °F 6.8 °F 990.7 in Calm     96 % 0.0 in
23:00 7.3 °F 6.7 °F 990.7 in Calm     96 % 0.0 in
23:15 7.2 °F 6.6 °F 990.7 in Calm     96 % 0.0 in
23:30 7.3 °F 6.8 °F 990.7 in Calm     97 % 0.0 in
23:45 7.5 °F 7.1 °F 990.7 in Calm     97 % 0.0 in
Esan sääasema
Terveisin Weather Underground - 2.75 mb

Alkuperäinen skripti  Jim McMurry - jmcmurry@mwt.net Sovitettu myös templatelle  Wim van der Kuil - Leuven-Template.eu

Laitteet joita käytämme:

Sääasema
Davis VP2

Sääasemaohjelma
Cumulus

Sääaseman tietokone
Asus EeePC

Palveluntarjoaja
Suncomet

Davis VP2

Cumulus

Asus EeePC

Suncomet